Time;durP1;ratioP1;P1;durP2;ratioP2;P2;SDS_P1;SDS_P2;PMS_P1;PMS_P2;Temp;Humidity;BMP_temperature;BMP_pressure;BME280_temperature;BME280_humidity;BME280_pressure;Samples;Min_cycle;Max_cycle;Signal;HPM_P1;HPM_P2
2023/09/22 05:48:00;;;;;;;2.93;1.33;;;;;;;;;;10600967;27;20436;-85
2023/09/22 05:53:32;;;;;;;2.92;1.35;;;;;;;;;;10638292;28;20039;-85
2023/09/22 07:12:36;;;;;;;1.45;1.00;;;;;;;;;;10473240;28;20024;-85
2023/09/22 07:17:56;;;;;;;2.20;1.17;;;;;;;;;;10429452;28;20056;-83
2023/09/22 07:23:04;;;;;;;4.93;1.60;;;;;;;;;;10472840;28;20032;-83
2023/09/22 07:28:07;;;;;;;4.47;1.45;;;;;;;;;;10473609;28;20088;-83
2023/09/22 07:33:32;;;;;;;5.43;1.40;;;;;;;;;;10473609;28;20037;-84
2023/09/22 07:38:50;;;;;;;4.80;1.30;;;;;;;;;;10470695;28;20033;-83
2023/09/22 07:43:53;;;;;;;3.70;1.15;;;;;;;;;;10473011;28;20404;-82
2023/09/22 07:49:12;;;;;;;3.50;1.40;;;;;;;;;;10470700;28;20032;-83
2023/09/22 07:55:02;;;;;;;2.30;1.10;;;;;;;;;;10481349;28;20032;-82
2023/09/22 08:00:26;;;;;;;2.53;1.17;;;;;;;;;;10336975;28;20050;-83
2023/09/22 08:06:09;;;;;;;2.25;1.30;;;;;;;;;;10302196;28;20050;-82
2023/09/22 08:11:22;;;;;;;2.38;1.10;;;;;;;;;;10146123;29;20084;-83
2023/09/22 08:16:23;;;;;;;2.67;1.35;;;;;;;;;;10371722;28;20052;-83
2023/09/22 08:21:44;;;;;;;4.13;1.30;;;;;;;;;;10477358;28;20087;-83
2023/09/22 08:26:45;;;;;;;3.25;1.40;;;;;;;;;;10480097;28;20045;-83
2023/09/22 08:32:09;;;;;;;3.40;1.40;;;;;;;;;;10480962;28;20433;-82
2023/09/22 08:37:11;;;;;;;4.50;1.35;;;;;;;;;;10472268;28;20048;-83
2023/09/22 08:42:37;;;;;;;5.30;1.63;;;;;;;;;;10473440;28;20051;-84
2023/09/22 08:48:37;;;;;;;3.35;1.38;;;;;;;;;;10448387;28;20049;-84
2023/09/22 08:53:43;;;;;;;4.00;1.30;;;;;;;;;;10470744;28;20032;-85
2023/09/22 08:58:45;;;;;;;3.58;1.58;;;;;;;;;;10473609;28;20021;-84
2023/09/22 09:04:24;;;;;;;5.90;2.15;;;;;;;;;;10475228;28;20041;-84
2023/09/22 09:09:32;;;;;;;4.10;1.93;;;;;;;;;;10463732;28;20060;-84
2023/09/22 09:15:01;;;;;;;4.03;1.85;;;;;;;;;;10468547;28;20167;-84
2023/09/22 09:20:34;;;;;;;2.28;1.27;;;;;;;;;;10475988;28;20104;-85
2023/09/22 09:25:59;;;;;;;3.20;1.33;;;;;;;;;;10429908;28;20146;-83
2023/09/22 09:31:32;;;;;;;4.20;2.30;;;;;;;;;;10467420;28;20464;-83
2023/09/22 09:36:59;;;;;;;2.25;1.30;;;;;;;;;;10467016;28;20546;-84
2023/09/22 09:42:25;;;;;;;2.90;1.48;;;;;;;;;;10464726;28;20035;-83
2023/09/22 09:47:34;;;;;;;3.10;1.20;;;;;;;;;;10464345;28;20444;-81
2023/09/22 09:53:13;;;;;;;5.18;1.38;;;;;;;;;;10463389;28;20115;-81
2023/09/22 09:58:17;;;;;;;3.05;1.38;;;;;;;;;;10464868;28;20056;-82
2023/09/22 10:03:27;;;;;;;5.10;1.42;;;;;;;;;;10449248;28;20037;-82
2023/09/22 10:08:31;;;;;;;3.07;1.10;;;;;;;;;;10462955;28;20488;-82
2023/09/22 10:13:59;;;;;;;3.33;1.20;;;;;;;;;;10464232;28;20025;-82
2023/09/22 10:19:15;;;;;;;2.53;1.20;;;;;;;;;;10465495;28;20029;-83
2023/09/22 10:24:54;;;;;;;2.22;1.10;;;;;;;;;;10468791;28;20522;-82
2023/09/22 10:29:55;;;;;;;3.38;1.20;;;;;;;;;;10463608;28;20025;-83
2023/09/22 10:41:05;;;;;;;2.33;1.02;;;;;;;;;;10477465;28;20009;-82
2023/09/22 10:46:19;;;;;;;2.90;1.05;;;;;;;;;;10476404;28;20108;-83
2023/09/22 10:51:22;;;;;;;4.18;1.50;;;;;;;;;;10470860;28;20040;-82
2023/09/22 10:56:52;;;;;;;1.65;1.10;;;;;;;;;;10476952;28;20017;-82
2023/09/22 11:02:21;;;;;;;2.75;1.25;;;;;;;;;;10482897;28;20011;-83
2023/09/22 11:07:58;;;;;;;3.08;1.00;;;;;;;;;;10502499;28;20044;-84
2023/09/22 11:13:00;;;;;;;2.42;1.00;;;;;;;;;;10478353;28;20037;-83
2023/09/22 11:18:03;;;;;;;3.45;1.05;;;;;;;;;;10485707;28;20033;-83
2023/09/22 11:23:04;;;;;;;3.20;1.27;;;;;;;;;;10478597;28;20131;-82
2023/09/22 11:28:05;;;;;;;2.90;1.27;;;;;;;;;;10469739;28;20025;-81
2023/09/22 11:33:15;;;;;;;1.85;0.95;;;;;;;;;;10469398;28;20112;-81
2023/09/22 11:38:26;;;;;;;1.80;1.07;;;;;;;;;;10468873;28;20028;-80
2023/09/22 11:43:27;;;;;;;2.67;0.95;;;;;;;;;;10467900;28;20036;-81
2023/09/22 11:48:29;;;;;;;2.30;1.00;;;;;;;;;;10470556;28;20031;-81
2023/09/22 11:53:30;;;;;;;2.10;1.00;;;;;;;;;;10478530;28;20448;-82
2023/09/22 11:58:31;;;;;;;2.95;1.20;;;;;;;;;;10442708;22;20069;-80
2023/09/22 12:03:32;;;;;;;2.50;1.40;;;;;;;;;;10389329;28;20037;-81
2023/09/22 12:08:33;;;;;;;2.20;1.00;;;;;;;;;;10401513;28;20049;-81
2023/09/22 12:13:34;;;;;;;6.55;1.65;;;;;;;;;;10394074;28;20026;-81
2023/09/22 12:18:35;;;;;;;5.10;1.30;;;;;;;;;;10390381;28;20025;-81
2023/09/22 12:23:36;;;;;;;4.00;1.20;;;;;;;;;;10386290;28;20034;-81
2023/09/22 12:28:40;;;;;;;2.00;0.88;;;;;;;;;;10385936;28;20113;-80
2023/09/22 12:33:41;;;;;;;1.90;1.02;;;;;;;;;;10387743;28;20026;-80
2023/09/22 12:38:42;;;;;;;3.35;1.23;;;;;;;;;;10415902;28;20058;-81
2023/09/22 12:43:43;;;;;;;2.50;1.13;;;;;;;;;;10394535;28;20107;-81
2023/09/22 12:48:50;;;;;;;2.15;0.77;;;;;;;;;;10392958;28;20026;-84
2023/09/22 12:53:51;;;;;;;4.00;1.02;;;;;;;;;;10389052;28;20118;-84
2023/09/22 12:58:52;;;;;;;2.28;0.98;;;;;;;;;;10389387;28;20030;-83
2023/09/22 13:03:54;;;;;;;1.60;1.00;;;;;;;;;;10388615;28;20503;-82
2023/09/22 13:08:55;;;;;;;2.80;0.77;;;;;;;;;;10385859;28;20026;-83
2023/09/22 13:13:56;;;;;;;9.88;1.45;;;;;;;;;;10381009;28;20343;-80
2023/09/22 13:24:37;;;;;;;1.73;0.88;;;;;;;;;;10391761;28;20030;-80
2023/09/22 13:29:39;;;;;;;3.33;1.08;;;;;;;;;;10380560;28;20084;-79
2023/09/22 13:34:40;;;;;;;2.35;1.10;;;;;;;;;;10379991;28;20064;-80
2023/09/22 13:39:41;;;;;;;2.47;1.08;;;;;;;;;;10378913;28;20164;-80
2023/09/22 13:44:42;;;;;;;2.33;1.00;;;;;;;;;;10378276;28;20022;-81
2023/09/22 13:49:43;;;;;;;2.15;0.80;;;;;;;;;;10377909;28;20032;-80
2023/09/22 13:54:44;;;;;;;1.90;1.00;;;;;;;;;;10377056;28;20030;-79
2023/09/22 13:59:53;;;;;;;2.88;1.20;;;;;;;;;;10375633;28;20104;-79
2023/09/22 14:04:54;;;;;;;3.42;1.35;;;;;;;;;;10376258;28;20033;-78
2023/09/22 14:09:55;;;;;;;4.05;1.30;;;;;;;;;;10384912;28;20461;-79
2023/09/22 14:14:56;;;;;;;4.15;2.28;;;;;;;;;;10386295;28;20034;-81
2023/09/22 14:19:57;;;;;;;5.00;1.40;;;;;;;;;;10385813;28;20026;-79
2023/09/22 14:24:58;;;;;;;2.30;1.20;;;;;;;;;;10382849;28;20022;-79
2023/09/22 14:30:00;;;;;;;1.80;1.13;;;;;;;;;;10383120;28;20124;-79
2023/09/22 14:35:01;;;;;;;2.88;1.00;;;;;;;;;;10384503;28;20030;-79
2023/09/22 14:40:03;;;;;;;6.38;1.55;;;;;;;;;;10383388;28;20088;-79
2023/09/22 14:45:05;;;;;;;2.10;1.10;;;;;;;;;;10394054;28;20058;-79
2023/09/22 14:50:06;;;;;;;3.03;1.23;;;;;;;;;;10390374;28;20118;-79
2023/09/22 14:55:08;;;;;;;3.28;1.30;;;;;;;;;;10385110;28;20028;-79
2023/09/22 15:00:15;;;;;;;2.83;1.40;;;;;;;;;;10383901;28;20033;-79
2023/09/22 15:05:16;;;;;;;3.53;1.20;;;;;;;;;;10381692;28;20037;-78
2023/09/22 15:10:18;;;;;;;2.25;1.30;;;;;;;;;;10383156;28;20030;-78
2023/09/22 15:15:19;;;;;;;2.72;1.15;;;;;;;;;;10384488;28;20022;-78
2023/09/22 15:20:21;;;;;;;3.05;1.33;;;;;;;;;;10379418;28;20669;-78
2023/09/22 15:25:22;;;;;;;2.30;1.25;;;;;;;;;;10381619;28;20029;-77
2023/09/22 15:30:23;;;;;;;2.83;1.20;;;;;;;;;;10382042;28;20036;-79
2023/09/22 15:35:25;;;;;;;2.67;1.15;;;;;;;;;;10381824;28;20382;-79
2023/09/22 15:40:27;;;;;;;3.45;1.17;;;;;;;;;;10380630;28;20049;-79
2023/09/22 15:45:28;;;;;;;2.40;1.10;;;;;;;;;;10380511;28;20033;-81
2023/09/22 15:50:32;;;;;;;2.60;1.30;;;;;;;;;;10382716;28;20038;-79
2023/09/22 15:55:33;;;;;;;2.92;1.30;;;;;;;;;;10380159;28;20026;-79
2023/09/22 16:00:45;;;;;;;4.47;1.30;;;;;;;;;;10386297;28;20126;-81
2023/09/22 16:05:46;;;;;;;2.90;1.50;;;;;;;;;;10383407;28;20124;-79
2023/09/22 16:10:48;;;;;;;2.50;1.27;;;;;;;;;;10406659;28;20099;-79
2023/09/22 16:15:49;;;;;;;4.28;1.27;;;;;;;;;;10406043;28;20029;-80
2023/09/22 16:20:50;;;;;;;2.72;1.33;;;;;;;;;;10409274;28;20535;-80
2023/09/22 16:25:51;;;;;;;2.25;1.27;;;;;;;;;;10414431;28;20029;-80
2023/09/22 16:30:53;;;;;;;3.15;1.38;;;;;;;;;;10414372;28;20021;-83
2023/09/22 16:35:55;;;;;;;2.45;1.02;;;;;;;;;;10419723;28;20075;-84
2023/09/22 16:40:56;;;;;;;3.28;1.23;;;;;;;;;;10416177;28;20453;-84
2023/09/22 16:45:58;;;;;;;2.90;1.02;;;;;;;;;;10428392;28;20535;-86
2023/09/22 16:51:00;;;;;;;4.63;1.70;;;;;;;;;;10386310;28;20034;-86
2023/09/22 16:56:12;;;;;;;1.90;0.95;;;;;;;;;;10400794;28;20029;-86
2023/09/22 17:01:15;;;;;;;2.03;1.08;;;;;;;;;;10402013;28;20079;-87
2023/09/22 17:06:16;;;;;;;2.92;1.30;;;;;;;;;;10401578;28;20449;-86
2023/09/22 17:11:17;;;;;;;2.13;1.15;;;;;;;;;;10401966;28;20026;-86
2023/09/22 17:16:18;;;;;;;3.13;1.30;;;;;;;;;;10402428;28;20029;-87
2023/09/22 17:21:19;;;;;;;2.22;1.30;;;;;;;;;;10401980;28;20029;-87
2023/09/22 17:37:30;;;;;;;3.30;1.30;;;;;;;;;;10425940;28;20022;-84
2023/09/22 17:42:33;;;;;;;2.90;1.10;;;;;;;;;;10427469;28;20396;-84
2023/09/22 17:47:34;;;;;;;2.83;1.38;;;;;;;;;;10430016;28;20032;-84
2023/09/22 17:52:37;;;;;;;2.13;1.10;;;;;;;;;;10437569;28;20492;-86
